sensor_id;sensor_type;location;lat;lon;timestamp;P1;durP1;ratioP1;P2;durP2;ratioP2
44730;SDS011;30458;47.448;19.032;2022-07-24T00:09:38;10.97;;;9.80;;
44730;SDS011;30458;47.448;19.032;2022-07-24T00:19:38;9.13;;;8.43;;
44730;SDS011;30458;47.448;19.032;2022-07-24T00:29:39;9.95;;;8.95;;
44730;SDS011;30458;47.448;19.032;2022-07-24T00:39:40;10.70;;;9.60;;
44730;SDS011;30458;47.448;19.032;2022-07-24T00:49:43;10.35;;;9.40;;
44730;SDS011;30458;47.448;19.032;2022-07-24T00:59:44;13.52;;;9.85;;
44730;SDS011;30458;47.448;19.032;2022-07-24T01:09:47;10.90;;;9.77;;
44730;SDS011;30458;47.448;19.032;2022-07-24T01:19:50;9.05;;;8.15;;
44730;SDS011;30458;47.448;19.032;2022-07-24T01:29:52;8.75;;;7.95;;
44730;SDS011;30458;47.448;19.032;2022-07-24T01:39:53;8.65;;;7.75;;
44730;SDS011;30458;47.448;19.032;2022-07-24T01:49:57;8.23;;;7.43;;
44730;SDS011;30458;47.448;19.032;2022-07-24T02:00:03;9.10;;;6.97;;
44730;SDS011;30458;47.448;19.032;2022-07-24T02:10:13;7.20;;;6.50;;
44730;SDS011;30458;47.448;19.032;2022-07-24T02:20:15;7.95;;;6.68;;
44730;SDS011;30458;47.448;19.032;2022-07-24T02:30:18;9.05;;;6.93;;
44730;SDS011;30458;47.448;19.032;2022-07-24T02:40:20;7.40;;;6.72;;
44730;SDS011;30458;47.448;19.032;2022-07-24T02:50:24;7.13;;;6.53;;
44730;SDS011;30458;47.448;19.032;2022-07-24T03:00:29;6.88;;;6.18;;
44730;SDS011;30458;47.448;19.032;2022-07-24T03:10:30;7.75;;;6.95;;
44730;SDS011;30458;47.448;19.032;2022-07-24T03:20:36;7.45;;;6.65;;
44730;SDS011;30458;47.448;19.032;2022-07-24T03:30:37;6.75;;;5.88;;
44730;SDS011;30458;47.448;19.032;2022-07-24T03:40:41;7.47;;;6.70;;
44730;SDS011;30458;47.448;19.032;2022-07-24T03:50:41;7.13;;;6.53;;
44730;SDS011;30458;47.448;19.032;2022-07-24T04:00:45;7.50;;;6.80;;
44730;SDS011;30458;47.448;19.032;2022-07-24T04:10:47;7.25;;;6.50;;
44730;SDS011;30458;47.448;19.032;2022-07-24T04:20:51;6.70;;;6.10;;
44730;SDS011;30458;47.448;19.032;2022-07-24T04:30:55;7.75;;;6.95;;
44730;SDS011;30458;47.448;19.032;2022-07-24T04:40:55;8.82;;;7.93;;
44730;SDS011;30458;47.448;19.032;2022-07-24T04:50:56;7.83;;;7.03;;
44730;SDS011;30458;47.448;19.032;2022-07-24T05:00:57;8.15;;;7.32;;
44730;SDS011;30458;47.448;19.032;2022-07-24T05:10:58;8.43;;;7.63;;
44730;SDS011;30458;47.448;19.032;2022-07-24T05:20:59;8.87;;;7.97;;
44730;SDS011;30458;47.448;19.032;2022-07-24T05:30:59;10.02;;;9.02;;
44730;SDS011;30458;47.448;19.032;2022-07-24T05:41:04;10.05;;;9.05;;
44730;SDS011;30458;47.448;19.032;2022-07-24T05:51:11;10.18;;;9.05;;
44730;SDS011;30458;47.448;19.032;2022-07-24T06:01:12;11.00;;;10.00;;
44730;SDS011;30458;47.448;19.032;2022-07-24T06:11:13;9.30;;;8.40;;
44730;SDS011;30458;47.448;19.032;2022-07-24T06:21:14;9.85;;;8.98;;
44730;SDS011;30458;47.448;19.032;2022-07-24T06:31:17;9.45;;;8.65;;
44730;SDS011;30458;47.448;19.032;2022-07-24T06:41:20;10.10;;;9.20;;
44730;SDS011;30458;47.448;19.032;2022-07-24T06:51:21;10.18;;;9.27;;
44730;SDS011;30458;47.448;19.032;2022-07-24T07:01:22;10.20;;;9.30;;
44730;SDS011;30458;47.448;19.032;2022-07-24T07:11:25;10.98;;;9.98;;
44730;SDS011;30458;47.448;19.032;2022-07-24T07:21:26;10.23;;;9.32;;
44730;SDS011;30458;47.448;19.032;2022-07-24T07:31:27;9.43;;;8.63;;
44730;SDS011;30458;47.448;19.032;2022-07-24T07:41:28;9.60;;;8.70;;
44730;SDS011;30458;47.448;19.032;2022-07-24T07:51:29;9.55;;;8.68;;
44730;SDS011;30458;47.448;19.032;2022-07-24T08:01:29;9.02;;;8.07;;
44730;SDS011;30458;47.448;19.032;2022-07-24T08:11:32;9.23;;;8.45;;
44730;SDS011;30458;47.448;19.032;2022-07-24T08:21:36;9.18;;;8.48;;
44730;SDS011;30458;47.448;19.032;2022-07-24T08:31:37;10.95;;;9.32;;
44730;SDS011;30458;47.448;19.032;2022-07-24T08:41:38;11.05;;;10.13;;
44730;SDS011;30458;47.448;19.032;2022-07-24T08:51:39;10.45;;;9.55;;
44730;SDS011;30458;47.448;19.032;2022-07-24T09:01:44;8.55;;;7.75;;
44730;SDS011;30458;47.448;19.032;2022-07-24T09:11:47;9.32;;;8.43;;
44730;SDS011;30458;47.448;19.032;2022-07-24T09:21:48;8.13;;;7.43;;
44730;SDS011;30458;47.448;19.032;2022-07-24T09:42:00;8.95;;;8.15;;
44730;SDS011;30458;47.448;19.032;2022-07-24T10:02:14;9.00;;;8.20;;
44730;SDS011;30458;47.448;19.032;2022-07-24T10:12:19;8.27;;;7.57;;
44730;SDS011;30458;47.448;19.032;2022-07-24T10:22:22;9.07;;;8.27;;
44730;SDS011;30458;47.448;19.032;2022-07-24T10:32:24;9.20;;;8.30;;
44730;SDS011;30458;47.448;19.032;2022-07-24T10:42:31;9.93;;;9.13;;
44730;SDS011;30458;47.448;19.032;2022-07-24T10:52:32;8.80;;;7.90;;
44730;SDS011;30458;47.448;19.032;2022-07-24T11:02:34;8.23;;;7.53;;
44730;SDS011;30458;47.448;19.032;2022-07-24T11:12:41;7.85;;;7.20;;
44730;SDS011;30458;47.448;19.032;2022-07-24T11:22:51;7.75;;;7.05;;
44730;SDS011;30458;47.448;19.032;2022-07-24T11:32:54;7.40;;;6.72;;
44730;SDS011;30458;47.448;19.032;2022-07-24T11:42:59;6.75;;;6.10;;
44730;SDS011;30458;47.448;19.032;2022-07-24T11:53:05;6.37;;;5.87;;
44730;SDS011;30458;47.448;19.032;2022-07-24T12:03:12;5.40;;;5.00;;
44730;SDS011;30458;47.448;19.032;2022-07-24T12:13:13;6.55;;;5.68;;
44730;SDS011;30458;47.448;19.032;2022-07-24T12:23:19;4.95;;;4.45;;
44730;SDS011;30458;47.448;19.032;2022-07-24T12:33:27;5.28;;;4.80;;
44730;SDS011;30458;47.448;19.032;2022-07-24T12:43:29;4.55;;;4.15;;
44730;SDS011;30458;47.448;19.032;2022-07-24T12:53:33;4.93;;;4.53;;
44730;SDS011;30458;47.448;19.032;2022-07-24T13:03:35;4.90;;;4.50;;
44730;SDS011;30458;47.448;19.032;2022-07-24T13:13:38;5.20;;;4.80;;
44730;SDS011;30458;47.448;19.032;2022-07-24T13:23:41;5.07;;;4.68;;
44730;SDS011;30458;47.448;19.032;2022-07-24T13:33:48;4.65;;;4.28;;
44730;SDS011;30458;47.448;19.032;2022-07-24T13:43:49;4.20;;;3.80;;
44730;SDS011;30458;47.448;19.032;2022-07-24T13:53:51;5.05;;;4.28;;
44730;SDS011;30458;47.448;19.032;2022-07-24T14:03:52;4.07;;;3.78;;
44730;SDS011;30458;47.448;19.032;2022-07-24T14:13:53;4.40;;;3.80;;
44730;SDS011;30458;47.448;19.032;2022-07-24T14:23:58;4.10;;;3.80;;
44730;SDS011;30458;47.448;19.032;2022-07-24T14:34:04;4.00;;;3.70;;
44730;SDS011;30458;47.448;19.032;2022-07-24T14:44:05;4.70;;;3.80;;
44730;SDS011;30458;47.448;19.032;2022-07-24T14:54:12;4.40;;;4.00;;
44730;SDS011;30458;47.448;19.032;2022-07-24T15:04:17;4.00;;;3.60;;
44730;SDS011;30458;47.448;19.032;2022-07-24T15:14:20;3.70;;;3.40;;
44730;SDS011;30458;47.448;19.032;2022-07-24T15:24:22;3.80;;;3.50;;
44730;SDS011;30458;47.448;19.032;2022-07-24T15:34:22;4.00;;;3.40;;
44730;SDS011;30458;47.448;19.032;2022-07-24T15:44:23;3.63;;;3.33;;
44730;SDS011;30458;47.448;19.032;2022-07-24T15:54:24;3.50;;;3.20;;
44730;SDS011;30458;47.448;19.032;2022-07-24T16:04:28;3.13;;;2.92;;
44730;SDS011;30458;47.448;19.032;2022-07-24T16:14:30;2.93;;;2.73;;
44730;SDS011;30458;47.448;19.032;2022-07-24T16:24:33;3.30;;;2.60;;
44730;SDS011;30458;47.448;19.032;2022-07-24T16:34:35;3.40;;;3.10;;
44730;SDS011;30458;47.448;19.032;2022-07-24T16:44:36;2.85;;;2.60;;
44730;SDS011;30458;47.448;19.032;2022-07-24T16:54:40;2.80;;;2.60;;
44730;SDS011;30458;47.448;19.032;2022-07-24T17:04:46;3.22;;;2.78;;
44730;SDS011;30458;47.448;19.032;2022-07-24T17:14:49;3.30;;;2.70;;
44730;SDS011;30458;47.448;19.032;2022-07-24T17:24:52;2.80;;;2.60;;
44730;SDS011;30458;47.448;19.032;2022-07-24T17:34:53;3.20;;;2.90;;
44730;SDS011;30458;47.448;19.032;2022-07-24T17:44:59;2.83;;;2.63;;
44730;SDS011;30458;47.448;19.032;2022-07-24T17:55:03;2.60;;;2.40;;
44730;SDS011;30458;47.448;19.032;2022-07-24T18:05:05;3.78;;;2.97;;
44730;SDS011;30458;47.448;19.032;2022-07-24T18:15:07;3.33;;;2.60;;
44730;SDS011;30458;47.448;19.032;2022-07-24T18:25:08;7.10;;;2.80;;
44730;SDS011;30458;47.448;19.032;2022-07-24T18:35:10;3.28;;;2.95;;
44730;SDS011;30458;47.448;19.032;2022-07-24T18:45:10;3.83;;;2.83;;
44730;SDS011;30458;47.448;19.032;2022-07-24T18:55:15;2.50;;;2.30;;
44730;SDS011;30458;47.448;19.032;2022-07-24T19:05:21;3.00;;;2.70;;
44730;SDS011;30458;47.448;19.032;2022-07-24T19:15:22;2.72;;;2.53;;
44730;SDS011;30458;47.448;19.032;2022-07-24T19:25:23;2.90;;;2.70;;
44730;SDS011;30458;47.448;19.032;2022-07-24T19:35:26;2.88;;;2.50;;
44730;SDS011;30458;47.448;19.032;2022-07-24T19:45:27;3.33;;;2.90;;
44730;SDS011;30458;47.448;19.032;2022-07-24T19:55:29;2.40;;;2.20;;
44730;SDS011;30458;47.448;19.032;2022-07-24T20:05:29;2.50;;;2.30;;
44730;SDS011;30458;47.448;19.032;2022-07-24T20:15:34;2.80;;;2.47;;
44730;SDS011;30458;47.448;19.032;2022-07-24T20:25:35;2.42;;;2.22;;
44730;SDS011;30458;47.448;19.032;2022-07-24T20:35:38;2.88;;;2.67;;
44730;SDS011;30458;47.448;19.032;2022-07-24T20:45:44;2.78;;;2.58;;
44730;SDS011;30458;47.448;19.032;2022-07-24T20:55:45;3.00;;;2.70;;
44730;SDS011;30458;47.448;19.032;2022-07-24T21:05:45;3.10;;;2.50;;
44730;SDS011;30458;47.448;19.032;2022-07-24T21:15:46;3.10;;;2.80;;
44730;SDS011;30458;47.448;19.032;2022-07-24T21:25:47;3.20;;;2.90;;
44730;SDS011;30458;47.448;19.032;2022-07-24T21:35:48;3.60;;;3.00;;
44730;SDS011;30458;47.448;19.032;2022-07-24T21:45:51;3.53;;;3.23;;
44730;SDS011;30458;47.448;19.032;2022-07-24T21:55:54;3.80;;;3.45;;
44730;SDS011;30458;47.448;19.032;2022-07-24T22:05:55;4.88;;;4.28;;
44730;SDS011;30458;47.448;19.032;2022-07-24T22:15:56;5.70;;;5.20;;
44730;SDS011;30458;47.448;19.032;2022-07-24T22:25:59;6.63;;;6.03;;
44730;SDS011;30458;47.448;19.032;2022-07-24T22:36:00;6.33;;;5.83;;
44730;SDS011;30458;47.448;19.032;2022-07-24T22:46:01;6.05;;;5.18;;
44730;SDS011;30458;47.448;19.032;2022-07-24T22:56:07;5.03;;;4.53;;
44730;SDS011;30458;47.448;19.032;2022-07-24T23:06:08;4.93;;;4.53;;
44730;SDS011;30458;47.448;19.032;2022-07-24T23:16:09;4.60;;;4.15;;
44730;SDS011;30458;47.448;19.032;2022-07-24T23:26:10;5.35;;;4.85;;
44730;SDS011;30458;47.448;19.032;2022-07-24T23:36:14;4.55;;;4.15;;
44730;SDS011;30458;47.448;19.032;2022-07-24T23:46:15;4.55;;;4.15;;
44730;SDS011;30458;47.448;19.032;2022-07-24T23:56:15;5.15;;;3.72;;
